首页
METAR-TAF:

METAR-TAF

机场 :

科科斯機場

科科斯(基林)群島, 澳大利亚

纬度: 12-11S, 经度: 096-49E, 海拔: 3米

当前天气观测

该预报发布于23分钟前的13:00 UTC
风速15节,风向东南
温度 27°C
湿度 84%
气压 1013 hPa
能见度10公里或以上
多云层高于2300英尺
多云层高于3000英尺
阴天层高于3900英尺

METAR: YPCC 171300Z AUTO 13015KT 9999 // BKN023 BKN030 OVC039 27/24 Q1013

时间: 19:53 (13:23 UTC)

预报

该预报发布于2小时和7分钟前的11:16 UTC
预报有效从17日的 12点(UTC)到 18日的 12点(UTC)
风速17节,风向东南
能見度: 9000
散云层高于800英尺
多云层高于1500英尺
小阵雨
短暂存在
从 17日的 12点(UTC)到 18日的 12点(UTC)
风速15节,风向东转东南,有时为25节阵风
能見度: 2000
多云层高于800英尺
散云层高于1500英尺, 塔状积云.
阵雨
几率 30% :
短暂存在
从 17日的 12点(UTC)到 18日的 03点(UTC)
风速20节,风向多变,有时为35节阵风
能見度: 1000
多云层高于600英尺
散云层高于1500英尺, 积雨云.
雷暴, 雨,

TAF: YPCC 171116Z 1712/1812 13017KT 9000 -SHRA SCT008 BKN015 TEMPO 1712/1812 12015G25KT 2000 SHRA BKN008 SCT015TCU PROB30 TEMPO 1712/1803 VRB20G35KT 1000 TSRA BKN006 SCT015CB

超过4000个机场的气象观测和天气预报(METAR&TAF报告)。

可查询的气象台以黄色和红色小点在地图上表示。

将鼠标移到小点上方,可查看气象台名称。

然后点击查看天气观测和预报。

如需切换地图:点击带黑十字的绿色按钮放大地图;点击带横线的绿色按钮缩小地图;或者点击绿色箭头查看邻近地区的地图。


METAR-TAF: